sensor_id;sensor_type;location;lat;lon;timestamp;temperature;humidity
3919;DHT22;1974;48.670;8.994;2023-02-28T00:00:08;-1.70;95.10
3919;DHT22;1974;48.670;8.994;2023-02-28T00:02:35;-1.70;95.10
3919;DHT22;1974;48.670;8.994;2023-02-28T00:05:03;-1.70;95.30
3919;DHT22;1974;48.670;8.994;2023-02-28T00:07:30;-1.70;95.50
3919;DHT22;1974;48.670;8.994;2023-02-28T00:09:57;-1.80;95.50
3919;DHT22;1974;48.670;8.994;2023-02-28T00:12:24;-1.80;95.80
3919;DHT22;1974;48.670;8.994;2023-02-28T00:14:52;-1.80;95.80
3919;DHT22;1974;48.670;8.994;2023-02-28T00:17:19;-1.80;96.20
3919;DHT22;1974;48.670;8.994;2023-02-28T00:19:47;-1.80;96.20
3919;DHT22;1974;48.670;8.994;2023-02-28T00:22:15;-1.80;96.10
3919;DHT22;1974;48.670;8.994;2023-02-28T00:24:42;-1.80;96.20
3919;DHT22;1974;48.670;8.994;2023-02-28T00:27:09;-1.90;96.40
3919;DHT22;1974;48.670;8.994;2023-02-28T00:29:36;-1.90;97.00
3919;DHT22;1974;48.670;8.994;2023-02-28T00:32:05;-1.90;96.70
3919;DHT22;1974;48.670;8.994;2023-02-28T00:34:32;-1.90;96.90
3919;DHT22;1974;48.670;8.994;2023-02-28T00:37:03;-1.90;97.10
3919;DHT22;1974;48.670;8.994;2023-02-28T00:39:30;-1.90;97.40
3919;DHT22;1974;48.670;8.994;2023-02-28T00:41:57;-2.00;97.40
3919;DHT22;1974;48.670;8.994;2023-02-28T00:44:23;-2.00;97.90
3919;DHT22;1974;48.670;8.994;2023-02-28T00:46:50;-2.00;97.90
3919;DHT22;1974;48.670;8.994;2023-02-28T00:49:20;-2.00;98.10
3919;DHT22;1974;48.670;8.994;2023-02-28T00:51:47;-2.00;98.60
3919;DHT22;1974;48.670;8.994;2023-02-28T00:54:14;-2.10;98.40
3919;DHT22;1974;48.670;8.994;2023-02-28T00:56:41;-2.10;98.60
3919;DHT22;1974;48.670;8.994;2023-02-28T00:59:08;-2.10;98.90
3919;DHT22;1974;48.670;8.994;2023-02-28T01:01:35;-2.10;99.00
3919;DHT22;1974;48.670;8.994;2023-02-28T01:04:01;-2.10;99.20
3919;DHT22;1974;48.670;8.994;2023-02-28T01:06:29;-2.10;99.40
3919;DHT22;1974;48.670;8.994;2023-02-28T01:08:57;-2.10;99.50
3919;DHT22;1974;48.670;8.994;2023-02-28T01:11:24;-2.20;99.80
3919;DHT22;1974;48.670;8.994;2023-02-28T01:13:51;-2.10;99.90
3919;DHT22;1974;48.670;8.994;2023-02-28T01:16:18;-2.20;99.90
3919;DHT22;1974;48.670;8.994;2023-02-28T01:18:45;-2.20;99.90
3919;DHT22;1974;48.670;8.994;2023-02-28T01:21:13;-2.20;99.90
3919;DHT22;1974;48.670;8.994;2023-02-28T01:23:41;-2.20;99.90
3919;DHT22;1974;48.670;8.994;2023-02-28T01:26:10;-2.30;99.90
3919;DHT22;1974;48.670;8.994;2023-02-28T01:28:38;-2.30;99.90
3919;DHT22;1974;48.670;8.994;2023-02-28T01:31:05;-2.30;99.90
3919;DHT22;1974;48.670;8.994;2023-02-28T01:33:32;-2.30;99.90
3919;DHT22;1974;48.670;8.994;2023-02-28T01:35:59;-2.30;99.90
3919;DHT22;1974;48.670;8.994;2023-02-28T01:38:26;-2.30;99.90
3919;DHT22;1974;48.670;8.994;2023-02-28T01:40:55;-2.40;99.90
3919;DHT22;1974;48.670;8.994;2023-02-28T01:43:23;-2.40;99.90
3919;DHT22;1974;48.670;8.994;2023-02-28T01:45:51;-2.40;99.90
3919;DHT22;1974;48.670;8.994;2023-02-28T01:48:19;-2.40;99.90
3919;DHT22;1974;48.670;8.994;2023-02-28T01:50:47;-2.40;99.90
3919;DHT22;1974;48.670;8.994;2023-02-28T01:53:19;-2.50;99.90
3919;DHT22;1974;48.670;8.994;2023-02-28T01:55:49;-2.50;99.90
3919;DHT22;1974;48.670;8.994;2023-02-28T01:58:19;-2.50;99.90
3919;DHT22;1974;48.670;8.994;2023-02-28T02:00:46;-2.40;99.90
3919;DHT22;1974;48.670;8.994;2023-02-28T02:03:15;-2.40;99.90
3919;DHT22;1974;48.670;8.994;2023-02-28T02:05:44;-2.40;99.90
3919;DHT22;1974;48.670;8.994;2023-02-28T02:08:15;-2.40;99.90
3919;DHT22;1974;48.670;8.994;2023-02-28T02:10:44;-2.40;99.90
3919;DHT22;1974;48.670;8.994;2023-02-28T02:13:46;-2.40;99.90
3919;DHT22;1974;48.670;8.994;2023-02-28T02:16:28;-2.40;99.90
3919;DHT22;1974;48.670;8.994;2023-02-28T02:19:14;-2.40;99.90
3919;DHT22;1974;48.670;8.994;2023-02-28T02:22:05;-2.40;99.90
3919;DHT22;1974;48.670;8.994;2023-02-28T02:27:55;-2.50;99.90
3919;DHT22;1974;48.670;8.994;2023-02-28T02:30:41;-2.50;99.90
3919;DHT22;1974;48.670;8.994;2023-02-28T02:33:25;-2.50;99.90
3919;DHT22;1974;48.670;8.994;2023-02-28T02:36:01;-2.50;99.90
3919;DHT22;1974;48.670;8.994;2023-02-28T02:38:33;-2.50;99.90
3919;DHT22;1974;48.670;8.994;2023-02-28T02:41:08;-2.40;99.90
3919;DHT22;1974;48.670;8.994;2023-02-28T02:43:38;-2.50;99.90
3919;DHT22;1974;48.670;8.994;2023-02-28T02:46:11;-2.40;99.90
3919;DHT22;1974;48.670;8.994;2023-02-28T02:48:41;-2.40;99.90
3919;DHT22;1974;48.670;8.994;2023-02-28T02:51:13;-2.40;99.90
3919;DHT22;1974;48.670;8.994;2023-02-28T02:53:43;-2.40;99.90
3919;DHT22;1974;48.670;8.994;2023-02-28T02:56:12;-2.40;99.90
3919;DHT22;1974;48.670;8.994;2023-02-28T02:58:42;-2.40;99.90
3919;DHT22;1974;48.670;8.994;2023-02-28T03:01:14;-2.40;99.90
3919;DHT22;1974;48.670;8.994;2023-02-28T03:03:42;-2.40;99.90
3919;DHT22;1974;48.670;8.994;2023-02-28T03:06:11;-2.40;99.90
3919;DHT22;1974;48.670;8.994;2023-02-28T03:08:38;-2.40;99.90
3919;DHT22;1974;48.670;8.994;2023-02-28T03:11:07;-2.40;99.90
3919;DHT22;1974;48.670;8.994;2023-02-28T03:19:47;-2.20;99.90
3919;DHT22;1974;48.670;8.994;2023-02-28T03:22:29;-2.20;99.90
3919;DHT22;1974;48.670;8.994;2023-02-28T03:25:05;-2.20;99.90
3919;DHT22;1974;48.670;8.994;2023-02-28T03:27:38;-2.20;99.90
3919;DHT22;1974;48.670;8.994;2023-02-28T03:30:09;-2.20;99.90
3919;DHT22;1974;48.670;8.994;2023-02-28T03:32:41;-2.20;99.90
3919;DHT22;1974;48.670;8.994;2023-02-28T03:35:12;-2.20;99.90
3919;DHT22;1974;48.670;8.994;2023-02-28T03:37:43;-2.20;99.90
3919;DHT22;1974;48.670;8.994;2023-02-28T03:40:13;-2.20;99.90
3919;DHT22;1974;48.670;8.994;2023-02-28T03:42:43;-2.20;99.90
3919;DHT22;1974;48.670;8.994;2023-02-28T03:45:13;-2.20;99.90
3919;DHT22;1974;48.670;8.994;2023-02-28T03:47:44;-2.20;99.90
3919;DHT22;1974;48.670;8.994;2023-02-28T03:50:16;-2.20;99.90
3919;DHT22;1974;48.670;8.994;2023-02-28T03:52:49;-2.10;99.90
3919;DHT22;1974;48.670;8.994;2023-02-28T03:55:18;-2.00;99.90
3919;DHT22;1974;48.670;8.994;2023-02-28T03:57:54;-2.00;99.90
3919;DHT22;1974;48.670;8.994;2023-02-28T04:00:27;-2.00;99.90
3919;DHT22;1974;48.670;8.994;2023-02-28T04:02:56;-2.00;99.90
3919;DHT22;1974;48.670;8.994;2023-02-28T04:05:23;-2.00;99.90
3919;DHT22;1974;48.670;8.994;2023-02-28T04:07:52;-2.00;99.90
3919;DHT22;1974;48.670;8.994;2023-02-28T04:10:19;-2.10;99.90
3919;DHT22;1974;48.670;8.994;2023-02-28T04:12:46;-2.10;99.90
3919;DHT22;1974;48.670;8.994;2023-02-28T04:15:13;-2.10;99.90
3919;DHT22;1974;48.670;8.994;2023-02-28T04:17:39;-2.10;99.90
3919;DHT22;1974;48.670;8.994;2023-02-28T04:20:07;-2.20;99.90
3919;DHT22;1974;48.670;8.994;2023-02-28T04:22:36;-2.10;99.90
3919;DHT22;1974;48.670;8.994;2023-02-28T04:25:05;-2.10;99.90
3919;DHT22;1974;48.670;8.994;2023-02-28T04:27:32;-2.00;99.90
3919;DHT22;1974;48.670;8.994;2023-02-28T04:29:59;-2.00;99.90
3919;DHT22;1974;48.670;8.994;2023-02-28T04:32:26;-2.10;99.90
3919;DHT22;1974;48.670;8.994;2023-02-28T04:34:53;-2.10;99.90
3919;DHT22;1974;48.670;8.994;2023-02-28T04:37:20;-2.10;99.90
3919;DHT22;1974;48.670;8.994;2023-02-28T04:39:46;-2.10;99.90
3919;DHT22;1974;48.670;8.994;2023-02-28T04:42:15;-2.00;99.90
3919;DHT22;1974;48.670;8.994;2023-02-28T04:44:41;-2.00;99.90
3919;DHT22;1974;48.670;8.994;2023-02-28T04:47:08;-2.00;99.90
3919;DHT22;1974;48.670;8.994;2023-02-28T04:49:35;-2.00;99.90
3919;DHT22;1974;48.670;8.994;2023-02-28T04:52:02;-2.00;99.90
3919;DHT22;1974;48.670;8.994;2023-02-28T04:54:28;-1.90;99.90
3919;DHT22;1974;48.670;8.994;2023-02-28T04:56:55;-1.90;99.90
3919;DHT22;1974;48.670;8.994;2023-02-28T04:59:24;-1.90;99.90
3919;DHT22;1974;48.670;8.994;2023-02-28T05:01:50;-2.00;99.90
3919;DHT22;1974;48.670;8.994;2023-02-28T05:04:17;-1.90;99.90
3919;DHT22;1974;48.670;8.994;2023-02-28T05:06:44;-2.00;99.90
3919;DHT22;1974;48.670;8.994;2023-02-28T05:09:11;-2.00;99.90
3919;DHT22;1974;48.670;8.994;2023-02-28T05:11:38;-2.00;99.90
3919;DHT22;1974;48.670;8.994;2023-02-28T05:14:09;-2.00;99.90
3919;DHT22;1974;48.670;8.994;2023-02-28T05:16:37;-2.00;99.90
3919;DHT22;1974;48.670;8.994;2023-02-28T05:19:04;-2.00;99.90
3919;DHT22;1974;48.670;8.994;2023-02-28T05:21:32;-2.00;99.90
3919;DHT22;1974;48.670;8.994;2023-02-28T05:24:01;-2.00;99.90
3919;DHT22;1974;48.670;8.994;2023-02-28T05:26:28;-2.00;99.90
3919;DHT22;1974;48.670;8.994;2023-02-28T05:28:55;-2.00;99.90
3919;DHT22;1974;48.670;8.994;2023-02-28T05:31:23;-2.00;99.90
3919;DHT22;1974;48.670;8.994;2023-02-28T05:33:51;-2.00;99.90
3919;DHT22;1974;48.670;8.994;2023-02-28T05:36:18;-2.00;99.90
3919;DHT22;1974;48.670;8.994;2023-02-28T05:38:46;-2.00;99.90
3919;DHT22;1974;48.670;8.994;2023-02-28T05:41:13;-1.90;99.90
3919;DHT22;1974;48.670;8.994;2023-02-28T05:43:40;-2.00;99.90
3919;DHT22;1974;48.670;8.994;2023-02-28T05:46:08;-2.00;99.90
3919;DHT22;1974;48.670;8.994;2023-02-28T05:48:37;-2.00;99.90
3919;DHT22;1974;48.670;8.994;2023-02-28T05:51:06;-1.90;99.90
3919;DHT22;1974;48.670;8.994;2023-02-28T05:53:33;-1.90;99.90
3919;DHT22;1974;48.670;8.994;2023-02-28T05:56:00;-1.90;99.90
3919;DHT22;1974;48.670;8.994;2023-02-28T05:58:27;-2.00;99.90
3919;DHT22;1974;48.670;8.994;2023-02-28T06:00:56;-2.00;99.90
3919;DHT22;1974;48.670;8.994;2023-02-28T06:03:23;-2.00;99.90
3919;DHT22;1974;48.670;8.994;2023-02-28T06:05:51;-1.90;99.90
3919;DHT22;1974;48.670;8.994;2023-02-28T06:08:19;-1.90;99.90
3919;DHT22;1974;48.670;8.994;2023-02-28T06:10:46;-1.90;99.90
3919;DHT22;1974;48.670;8.994;2023-02-28T06:13:12;-1.90;99.90
3919;DHT22;1974;48.670;8.994;2023-02-28T06:15:39;-2.00;99.90
3919;DHT22;1974;48.670;8.994;2023-02-28T06:18:07;-2.00;99.90
3919;DHT22;1974;48.670;8.994;2023-02-28T06:20:33;-2.00;99.90
3919;DHT22;1974;48.670;8.994;2023-02-28T06:23:01;-2.00;99.90
3919;DHT22;1974;48.670;8.994;2023-02-28T06:25:29;-2.00;99.90
3919;DHT22;1974;48.670;8.994;2023-02-28T06:27:56;-1.90;99.90
3919;DHT22;1974;48.670;8.994;2023-02-28T06:30:23;-1.90;99.90
3919;DHT22;1974;48.670;8.994;2023-02-28T06:32:52;-1.90;99.90
3919;DHT22;1974;48.670;8.994;2023-02-28T06:35:20;-1.90;99.90
3919;DHT22;1974;48.670;8.994;2023-02-28T06:37:46;-1.80;99.90
3919;DHT22;1974;48.670;8.994;2023-02-28T06:40:13;-1.90;99.90
3919;DHT22;1974;48.670;8.994;2023-02-28T06:42:41;-1.90;99.90
3919;DHT22;1974;48.670;8.994;2023-02-28T06:45:09;-1.90;99.90
3919;DHT22;1974;48.670;8.994;2023-02-28T06:47:37;-1.90;99.90
3919;DHT22;1974;48.670;8.994;2023-02-28T06:50:04;-1.90;99.90
3919;DHT22;1974;48.670;8.994;2023-02-28T06:52:31;-1.90;99.90
3919;DHT22;1974;48.670;8.994;2023-02-28T06:54:58;-1.90;99.90
3919;DHT22;1974;48.670;8.994;2023-02-28T06:57:27;-1.90;99.90
3919;DHT22;1974;48.670;8.994;2023-02-28T06:59:57;-1.80;99.90
3919;DHT22;1974;48.670;8.994;2023-02-28T07:02:24;-1.90;99.90
3919;DHT22;1974;48.670;8.994;2023-02-28T07:04:51;-1.80;99.90
3919;DHT22;1974;48.670;8.994;2023-02-28T07:07:19;-1.80;99.90
3919;DHT22;1974;48.670;8.994;2023-02-28T07:09:46;-1.70;99.90
3919;DHT22;1974;48.670;8.994;2023-02-28T07:12:12;-1.70;99.90
3919;DHT22;1974;48.670;8.994;2023-02-28T07:14:39;-1.60;99.90
3919;DHT22;1974;48.670;8.994;2023-02-28T07:17:08;-1.60;99.90
3919;DHT22;1974;48.670;8.994;2023-02-28T07:19:37;-1.50;99.90
3919;DHT22;1974;48.670;8.994;2023-02-28T07:22:04;-1.50;99.90
3919;DHT22;1974;48.670;8.994;2023-02-28T07:24:31;-1.50;99.90
3919;DHT22;1974;48.670;8.994;2023-02-28T07:26:57;-1.50;99.90
3919;DHT22;1974;48.670;8.994;2023-02-28T07:29:26;-1.40;99.90
3919;DHT22;1974;48.670;8.994;2023-02-28T07:31:52;-1.40;99.90
3919;DHT22;1974;48.670;8.994;2023-02-28T07:34:21;-1.40;99.90
3919;DHT22;1974;48.670;8.994;2023-02-28T07:36:48;-1.30;99.90
3919;DHT22;1974;48.670;8.994;2023-02-28T07:39:18;-1.40;99.90
3919;DHT22;1974;48.670;8.994;2023-02-28T07:41:45;-1.30;99.90
3919;DHT22;1974;48.670;8.994;2023-02-28T07:44:13;-1.30;99.90
3919;DHT22;1974;48.670;8.994;2023-02-28T07:46:40;-1.30;99.90
3919;DHT22;1974;48.670;8.994;2023-02-28T07:49:07;-1.20;99.90
3919;DHT22;1974;48.670;8.994;2023-02-28T07:51:35;-1.20;99.90
3919;DHT22;1974;48.670;8.994;2023-02-28T07:54:03;-1.20;99.90
3919;DHT22;1974;48.670;8.994;2023-02-28T07:56:31;-1.10;99.90
3919;DHT22;1974;48.670;8.994;2023-02-28T07:58:58;-1.00;99.90
3919;DHT22;1974;48.670;8.994;2023-02-28T08:01:24;-1.00;99.90
3919;DHT22;1974;48.670;8.994;2023-02-28T08:03:51;-1.10;99.90
3919;DHT22;1974;48.670;8.994;2023-02-28T08:06:21;-1.00;99.90
3919;DHT22;1974;48.670;8.994;2023-02-28T08:08:50;-1.10;99.90
3919;DHT22;1974;48.670;8.994;2023-02-28T08:11:18;-1.00;99.90
3919;DHT22;1974;48.670;8.994;2023-02-28T08:13:45;-1.00;99.90
3919;DHT22;1974;48.670;8.994;2023-02-28T08:16:13;-1.00;99.90
3919;DHT22;1974;48.670;8.994;2023-02-28T08:18:42;-0.90;99.90
3919;DHT22;1974;48.670;8.994;2023-02-28T08:21:10;-0.80;99.90
3919;DHT22;1974;48.670;8.994;2023-02-28T08:23:37;-0.80;99.90
3919;DHT22;1974;48.670;8.994;2023-02-28T08:26:05;-0.80;99.90
3919;DHT22;1974;48.670;8.994;2023-02-28T08:28:32;-0.80;99.90
3919;DHT22;1974;48.670;8.994;2023-02-28T08:30:59;-0.80;99.90
3919;DHT22;1974;48.670;8.994;2023-02-28T08:33:27;-0.90;99.90
3919;DHT22;1974;48.670;8.994;2023-02-28T08:35:54;-0.80;99.90
3919;DHT22;1974;48.670;8.994;2023-02-28T08:38:21;-0.80;99.90
3919;DHT22;1974;48.670;8.994;2023-02-28T08:40:48;-0.70;99.90
3919;DHT22;1974;48.670;8.994;2023-02-28T08:43:16;-0.80;99.90
3919;DHT22;1974;48.670;8.994;2023-02-28T08:45:46;-0.80;99.90
3919;DHT22;1974;48.670;8.994;2023-02-28T08:48:13;-0.70;99.90
3919;DHT22;1974;48.670;8.994;2023-02-28T08:50:40;-0.60;99.90
3919;DHT22;1974;48.670;8.994;2023-02-28T08:53:07;-0.60;99.90
3919;DHT22;1974;48.670;8.994;2023-02-28T08:55:33;-0.70;99.90
3919;DHT22;1974;48.670;8.994;2023-02-28T08:58:00;-0.70;99.90
3919;DHT22;1974;48.670;8.994;2023-02-28T09:00:28;-0.60;99.90
3919;DHT22;1974;48.670;8.994;2023-02-28T09:02:55;-0.60;99.90
3919;DHT22;1974;48.670;8.994;2023-02-28T09:05:22;-0.60;99.90
3919;DHT22;1974;48.670;8.994;2023-02-28T09:07:49;-0.50;99.90
3919;DHT22;1974;48.670;8.994;2023-02-28T09:10:16;-0.40;99.90
3919;DHT22;1974;48.670;8.994;2023-02-28T09:12:43;-0.40;99.90
3919;DHT22;1974;48.670;8.994;2023-02-28T09:15:12;-0.40;99.90
3919;DHT22;1974;48.670;8.994;2023-02-28T09:17:40;-0.40;99.90
3919;DHT22;1974;48.670;8.994;2023-02-28T09:20:08;-0.40;99.90
3919;DHT22;1974;48.670;8.994;2023-02-28T09:22:35;-0.40;99.90
3919;DHT22;1974;48.670;8.994;2023-02-28T09:25:02;-0.40;99.90
3919;DHT22;1974;48.670;8.994;2023-02-28T09:27:29;-0.40;99.90
3919;DHT22;1974;48.670;8.994;2023-02-28T09:29:56;-0.30;99.90
3919;DHT22;1974;48.670;8.994;2023-02-28T09:32:23;-0.30;99.90
3919;DHT22;1974;48.670;8.994;2023-02-28T09:34:51;-0.10;99.90
3919;DHT22;1974;48.670;8.994;2023-02-28T09:37:17;0.00;99.90
3919;DHT22;1974;48.670;8.994;2023-02-28T09:39:44;0.00;99.90
3919;DHT22;1974;48.670;8.994;2023-02-28T09:42:18;-0.10;99.90
3919;DHT22;1974;48.670;8.994;2023-02-28T09:44:47;-0.10;99.90
3919;DHT22;1974;48.670;8.994;2023-02-28T09:47:23;-0.10;99.90
3919;DHT22;1974;48.670;8.994;2023-02-28T09:49:55;-0.10;99.90
3919;DHT22;1974;48.670;8.994;2023-02-28T09:52:28;0.00;99.90
3919;DHT22;1974;48.670;8.994;2023-02-28T09:54:55;0.10;99.90
3919;DHT22;1974;48.670;8.994;2023-02-28T09:57:32;0.10;99.90
3919;DHT22;1974;48.670;8.994;2023-02-28T10:00:10;0.20;99.90
3919;DHT22;1974;48.670;8.994;2023-02-28T10:02:49;0.30;99.90
3919;DHT22;1974;48.670;8.994;2023-02-28T10:05:22;0.30;99.90
3919;DHT22;1974;48.670;8.994;2023-02-28T10:08:00;0.30;99.90
3919;DHT22;1974;48.670;8.994;2023-02-28T10:10:35;0.40;99.90
3919;DHT22;1974;48.670;8.994;2023-02-28T10:13:05;0.40;99.90
3919;DHT22;1974;48.670;8.994;2023-02-28T10:15:34;0.40;99.90
3919;DHT22;1974;48.670;8.994;2023-02-28T10:18:04;0.40;99.90
3919;DHT22;1974;48.670;8.994;2023-02-28T10:20:35;0.50;99.90
3919;DHT22;1974;48.670;8.994;2023-02-28T10:23:09;0.50;99.90
3919;DHT22;1974;48.670;8.994;2023-02-28T10:25:39;0.50;99.90
3919;DHT22;1974;48.670;8.994;2023-02-28T10:28:11;0.60;99.90
3919;DHT22;1974;48.670;8.994;2023-02-28T10:30:40;0.60;99.90
3919;DHT22;1974;48.670;8.994;2023-02-28T10:33:17;0.70;99.90
3919;DHT22;1974;48.670;8.994;2023-02-28T10:35:46;0.80;99.90
3919;DHT22;1974;48.670;8.994;2023-02-28T10:38:17;0.90;99.90
3919;DHT22;1974;48.670;8.994;2023-02-28T10:40:44;1.00;99.90
3919;DHT22;1974;48.670;8.994;2023-02-28T10:43:22;0.90;99.90
3919;DHT22;1974;48.670;8.994;2023-02-28T10:45:56;0.90;99.90
3919;DHT22;1974;48.670;8.994;2023-02-28T10:48:30;1.00;99.90
3919;DHT22;1974;48.670;8.994;2023-02-28T10:51:00;1.20;99.90
3919;DHT22;1974;48.670;8.994;2023-02-28T10:53:36;1.30;99.90
3919;DHT22;1974;48.670;8.994;2023-02-28T10:56:06;1.30;99.90
3919;DHT22;1974;48.670;8.994;2023-02-28T10:58:46;1.30;99.90
3919;DHT22;1974;48.670;8.994;2023-02-28T11:01:14;1.40;99.90
3919;DHT22;1974;48.670;8.994;2023-02-28T11:03:41;1.50;99.90
3919;DHT22;1974;48.670;8.994;2023-02-28T11:06:15;1.40;99.90
3919;DHT22;1974;48.670;8.994;2023-02-28T11:08:48;1.60;99.90
3919;DHT22;1974;48.670;8.994;2023-02-28T11:11:16;1.80;99.90
3919;DHT22;1974;48.670;8.994;2023-02-28T11:13:44;1.70;99.90
3919;DHT22;1974;48.670;8.994;2023-02-28T11:16:13;1.70;99.90
3919;DHT22;1974;48.670;8.994;2023-02-28T11:18:43;1.80;99.90
3919;DHT22;1974;48.670;8.994;2023-02-28T11:21:20;1.70;99.90
3919;DHT22;1974;48.670;8.994;2023-02-28T11:23:49;1.70;99.90
3919;DHT22;1974;48.670;8.994;2023-02-28T11:26:35;1.60;99.90
3919;DHT22;1974;48.670;8.994;2023-02-28T11:29:10;1.80;99.90
3919;DHT22;1974;48.670;8.994;2023-02-28T11:31:37;2.00;99.90
3919;DHT22;1974;48.670;8.994;2023-02-28T11:34:23;2.10;99.90
3919;DHT22;1974;48.670;8.994;2023-02-28T11:36:54;2.30;99.90
3919;DHT22;1974;48.670;8.994;2023-02-28T11:39:22;2.20;99.90
3919;DHT22;1974;48.670;8.994;2023-02-28T11:42:02;2.10;99.90
3919;DHT22;1974;48.670;8.994;2023-02-28T11:44:43;2.00;99.90
3919;DHT22;1974;48.670;8.994;2023-02-28T11:47:18;1.80;99.90
3919;DHT22;1974;48.670;8.994;2023-02-28T11:49:55;1.80;99.90
3919;DHT22;1974;48.670;8.994;2023-02-28T11:52:36;1.90;99.90
3919;DHT22;1974;48.670;8.994;2023-02-28T11:55:14;2.00;99.90
3919;DHT22;1974;48.670;8.994;2023-02-28T12:00:44;2.10;99.90
3919;DHT22;1974;48.670;8.994;2023-02-28T12:03:27;2.30;99.90
3919;DHT22;1974;48.670;8.994;2023-02-28T12:06:02;2.60;99.90
3919;DHT22;1974;48.670;8.994;2023-02-28T12:08:44;2.60;99.90
3919;DHT22;1974;48.670;8.994;2023-02-28T12:11:24;2.70;99.90
3919;DHT22;1974;48.670;8.994;2023-02-28T12:14:12;2.90;99.90
3919;DHT22;1974;48.670;8.994;2023-02-28T12:16:49;3.00;99.90
3919;DHT22;1974;48.670;8.994;2023-02-28T12:19:26;3.00;99.90
3919;DHT22;1974;48.670;8.994;2023-02-28T12:22:06;3.00;99.90
3919;DHT22;1974;48.670;8.994;2023-02-28T12:24:51;3.20;99.90
3919;DHT22;1974;48.670;8.994;2023-02-28T12:27:22;3.60;99.90
3919;DHT22;1974;48.670;8.994;2023-02-28T12:29:55;3.80;99.90
3919;DHT22;1974;48.670;8.994;2023-02-28T12:32:27;3.70;99.90
3919;DHT22;1974;48.670;8.994;2023-02-28T12:35:00;3.40;99.90
3919;DHT22;1974;48.670;8.994;2023-02-28T12:37:33;3.20;99.90
3919;DHT22;1974;48.670;8.994;2023-02-28T12:40:05;3.20;99.90
3919;DHT22;1974;48.670;8.994;2023-02-28T12:42:38;3.20;99.90
3919;DHT22;1974;48.670;8.994;2023-02-28T12:45:10;3.20;99.90
3919;DHT22;1974;48.670;8.994;2023-02-28T12:47:40;3.20;99.90
3919;DHT22;1974;48.670;8.994;2023-02-28T12:50:10;3.20;99.90
3919;DHT22;1974;48.670;8.994;2023-02-28T12:52:43;3.00;99.90
3919;DHT22;1974;48.670;8.994;2023-02-28T12:55:19;2.90;99.90
3919;DHT22;1974;48.670;8.994;2023-02-28T12:57:55;2.90;99.90
3919;DHT22;1974;48.670;8.994;2023-02-28T13:00:30;2.90;99.90
3919;DHT22;1974;48.670;8.994;2023-02-28T13:06:28;2.90;99.90
3919;DHT22;1974;48.670;8.994;2023-02-28T13:09:04;2.80;99.90
3919;DHT22;1974;48.670;8.994;2023-02-28T13:11:34;2.80;99.90
3919;DHT22;1974;48.670;8.994;2023-02-28T13:14:16;2.80;99.90
3919;DHT22;1974;48.670;8.994;2023-02-28T13:16:53;2.80;99.90
3919;DHT22;1974;48.670;8.994;2023-02-28T13:19:22;2.80;99.90
3919;DHT22;1974;48.670;8.994;2023-02-28T13:21:50;2.90;99.90
3919;DHT22;1974;48.670;8.994;2023-02-28T13:24:40;2.80;99.90
3919;DHT22;1974;48.670;8.994;2023-02-28T13:27:24;2.70;99.90
3919;DHT22;1974;48.670;8.994;2023-02-28T13:29:57;2.80;99.90
3919;DHT22;1974;48.670;8.994;2023-02-28T13:32:42;2.70;99.90
3919;DHT22;1974;48.670;8.994;2023-02-28T13:38:32;2.90;99.90
3919;DHT22;1974;48.670;8.994;2023-02-28T13:44:03;3.00;99.90
3919;DHT22;1974;48.670;8.994;2023-02-28T13:46:31;3.20;99.90
3919;DHT22;1974;48.670;8.994;2023-02-28T13:49:19;3.20;99.90
3919;DHT22;1974;48.670;8.994;2023-02-28T13:51:47;3.10;99.90
3919;DHT22;1974;48.670;8.994;2023-02-28T13:54:22;2.90;99.90
3919;DHT22;1974;48.670;8.994;2023-02-28T13:57:01;2.90;99.90
3919;DHT22;1974;48.670;8.994;2023-02-28T13:59:37;2.90;99.90
3919;DHT22;1974;48.670;8.994;2023-02-28T14:05:17;2.80;99.90
3919;DHT22;1974;48.670;8.994;2023-02-28T14:07:47;2.90;99.90
3919;DHT22;1974;48.670;8.994;2023-02-28T14:10:27;2.90;99.90
3919;DHT22;1974;48.670;8.994;2023-02-28T14:13:03;3.00;99.90
3919;DHT22;1974;48.670;8.994;2023-02-28T14:15:45;3.00;99.90
3919;DHT22;1974;48.670;8.994;2023-02-28T14:18:24;3.10;99.90
3919;DHT22;1974;48.670;8.994;2023-02-28T14:20:56;3.10;99.90
3919;DHT22;1974;48.670;8.994;2023-02-28T14:23:40;3.10;99.90
3919;DHT22;1974;48.670;8.994;2023-02-28T14:26:16;3.20;99.90
3919;DHT22;1974;48.670;8.994;2023-02-28T14:28:55;3.20;99.90
3919;DHT22;1974;48.670;8.994;2023-02-28T14:31:32;3.20;99.90
3919;DHT22;1974;48.670;8.994;2023-02-28T14:34:17;3.20;99.90
3919;DHT22;1974;48.670;8.994;2023-02-28T14:36:48;3.30;99.90
3919;DHT22;1974;48.670;8.994;2023-02-28T14:39:18;3.30;99.90
3919;DHT22;1974;48.670;8.994;2023-02-28T14:41:46;3.40;99.90
3919;DHT22;1974;48.670;8.994;2023-02-28T14:44:16;3.30;99.90
3919;DHT22;1974;48.670;8.994;2023-02-28T14:46:45;3.30;99.90
3919;DHT22;1974;48.670;8.994;2023-02-28T14:49:17;3.30;99.90
3919;DHT22;1974;48.670;8.994;2023-02-28T14:51:44;3.30;99.90
3919;DHT22;1974;48.670;8.994;2023-02-28T14:54:15;3.30;99.90
3919;DHT22;1974;48.670;8.994;2023-02-28T14:56:42;3.30;99.90
3919;DHT22;1974;48.670;8.994;2023-02-28T14:59:25;3.30;99.90
3919;DHT22;1974;48.670;8.994;2023-02-28T15:02:14;3.40;99.90
3919;DHT22;1974;48.670;8.994;2023-02-28T15:04:41;3.40;99.90
3919;DHT22;1974;48.670;8.994;2023-02-28T15:07:09;3.40;99.90
3919;DHT22;1974;48.670;8.994;2023-02-28T15:09:36;3.40;99.90
3919;DHT22;1974;48.670;8.994;2023-02-28T15:12:03;3.40;99.90
3919;DHT22;1974;48.670;8.994;2023-02-28T15:14:30;3.30;99.90
3919;DHT22;1974;48.670;8.994;2023-02-28T15:17:02;3.40;99.90
3919;DHT22;1974;48.670;8.994;2023-02-28T15:19:34;3.50;99.90
3919;DHT22;1974;48.670;8.994;2023-02-28T15:22:04;3.50;99.90
3919;DHT22;1974;48.670;8.994;2023-02-28T15:24:37;3.50;99.90
3919;DHT22;1974;48.670;8.994;2023-02-28T15:27:07;3.50;99.90
3919;DHT22;1974;48.670;8.994;2023-02-28T15:29:43;3.50;99.90
3919;DHT22;1974;48.670;8.994;2023-02-28T15:32:26;3.50;99.90
3919;DHT22;1974;48.670;8.994;2023-02-28T15:34:54;3.50;99.90
3919;DHT22;1974;48.670;8.994;2023-02-28T15:37:29;3.50;99.90
3919;DHT22;1974;48.670;8.994;2023-02-28T15:40:03;3.50;99.90
3919;DHT22;1974;48.670;8.994;2023-02-28T15:42:30;3.50;99.90
3919;DHT22;1974;48.670;8.994;2023-02-28T15:44:58;3.50;99.90
3919;DHT22;1974;48.670;8.994;2023-02-28T15:47:27;3.50;99.90
3919;DHT22;1974;48.670;8.994;2023-02-28T15:49:58;3.50;99.90
3919;DHT22;1974;48.670;8.994;2023-02-28T15:52:33;3.50;99.90
3919;DHT22;1974;48.670;8.994;2023-02-28T15:55:08;3.50;99.90
3919;DHT22;1974;48.670;8.994;2023-02-28T15:57:39;3.50;99.90
3919;DHT22;1974;48.670;8.994;2023-02-28T16:00:12;3.40;99.90
3919;DHT22;1974;48.670;8.994;2023-02-28T16:02:41;3.40;99.90
3919;DHT22;1974;48.670;8.994;2023-02-28T16:05:23;3.40;99.90
3919;DHT22;1974;48.670;8.994;2023-02-28T16:07:54;3.30;99.90
3919;DHT22;1974;48.670;8.994;2023-02-28T16:10:22;3.30;99.90
3919;DHT22;1974;48.670;8.994;2023-02-28T16:12:52;3.30;99.90
3919;DHT22;1974;48.670;8.994;2023-02-28T16:15:21;3.30;99.90
3919;DHT22;1974;48.670;8.994;2023-02-28T16:17:50;3.30;99.90
3919;DHT22;1974;48.670;8.994;2023-02-28T16:20:20;3.30;99.90
3919;DHT22;1974;48.670;8.994;2023-02-28T16:22:47;3.30;99.90
3919;DHT22;1974;48.670;8.994;2023-02-28T16:25:14;3.30;99.90
3919;DHT22;1974;48.670;8.994;2023-02-28T16:27:42;3.30;99.90
3919;DHT22;1974;48.670;8.994;2023-02-28T16:30:17;3.30;99.90
3919;DHT22;1974;48.670;8.994;2023-02-28T16:32:44;3.20;99.90
3919;DHT22;1974;48.670;8.994;2023-02-28T16:35:13;3.20;99.90
3919;DHT22;1974;48.670;8.994;2023-02-28T16:37:39;3.20;99.90
3919;DHT22;1974;48.670;8.994;2023-02-28T16:40:12;3.20;99.90
3919;DHT22;1974;48.670;8.994;2023-02-28T16:42:40;3.20;99.90
3919;DHT22;1974;48.670;8.994;2023-02-28T16:45:15;3.10;99.90
3919;DHT22;1974;48.670;8.994;2023-02-28T16:47:42;3.10;99.90
3919;DHT22;1974;48.670;8.994;2023-02-28T16:50:15;3.00;99.90
3919;DHT22;1974;48.670;8.994;2023-02-28T16:52:42;3.00;99.90